sensor_id;sensor_type;location;lat;lon;timestamp;pressure;altitude;pressure_sealevel;temperature;humidity
7168;BME280;3625;51.762;14.320;2023-02-20T00:02:23;101394.47;;;1.69;100.00
7168;BME280;3625;51.762;14.320;2023-02-20T00:04:52;101395.25;;;1.67;100.00
7168;BME280;3625;51.762;14.320;2023-02-20T00:07:26;101387.25;;;1.61;100.00
7168;BME280;3625;51.762;14.320;2023-02-20T00:09:55;101390.53;;;1.54;100.00
7168;BME280;3625;51.762;14.320;2023-02-20T00:12:33;101371.22;;;1.47;100.00
7168;BME280;3625;51.762;14.320;2023-02-20T00:15:06;101365.69;;;1.36;100.00
7168;BME280;3625;51.762;14.320;2023-02-20T00:17:46;101359.44;;;1.31;100.00
7168;BME280;3625;51.762;14.320;2023-02-20T00:20:17;101354.28;;;1.33;100.00
7168;BME280;3625;51.762;14.320;2023-02-20T00:22:47;101356.72;;;1.27;100.00
7168;BME280;3625;51.762;14.320;2023-02-20T00:25:17;101361.66;;;1.18;100.00
7168;BME280;3625;51.762;14.320;2023-02-20T00:27:48;101361.31;;;1.07;100.00
7168;BME280;3625;51.762;14.320;2023-02-20T00:30:22;101358.59;;;1.04;100.00
7168;BME280;3625;51.762;14.320;2023-02-20T00:32:56;101223.97;;;0.16;100.00
7168;BME280;3625;51.762;14.320;2023-02-20T00:35:27;101364.34;;;0.92;100.00
7168;BME280;3625;51.762;14.320;2023-02-20T00:38:04;101358.09;;;0.87;100.00
7168;BME280;3625;51.762;14.320;2023-02-20T00:40:33;101353.47;;;0.79;100.00
7168;BME280;3625;51.762;14.320;2023-02-20T00:43:05;101340.44;;;0.79;100.00
7168;BME280;3625;51.762;14.320;2023-02-20T00:45:34;101334.13;;;0.70;100.00
7168;BME280;3625;51.762;14.320;2023-02-20T00:48:24;101322.59;;;0.62;100.00
7168;BME280;3625;51.762;14.320;2023-02-20T00:51:35;101314.75;;;0.62;100.00
7168;BME280;3625;51.762;14.320;2023-02-20T00:55:06;101309.56;;;0.62;100.00
7168;BME280;3625;51.762;14.320;2023-02-20T00:58:07;101303.56;;;0.65;100.00
7168;BME280;3625;51.762;14.320;2023-02-20T01:00:39;101306.22;;;0.66;100.00
7168;BME280;3625;51.762;14.320;2023-02-20T01:03:56;101314.03;;;0.66;100.00
7168;BME280;3625;51.762;14.320;2023-02-20T01:06:37;101304.34;;;0.62;100.00
7168;BME280;3625;51.762;14.320;2023-02-20T01:09:37;101305.94;;;0.57;100.00
7168;BME280;3625;51.762;14.320;2023-02-20T01:19:30;101320.44;;;0.49;100.00
7168;BME280;3625;51.762;14.320;2023-02-20T01:22:01;101318.78;;;0.53;100.00
7168;BME280;3625;51.762;14.320;2023-02-20T01:25:00;101315.47;;;0.57;100.00
7168;BME280;3625;51.762;14.320;2023-02-20T01:28:04;101311.84;;;0.52;100.00
7168;BME280;3625;51.762;14.320;2023-02-20T01:30:49;101307.59;;;0.55;100.00
7168;BME280;3625;51.762;14.320;2023-02-20T01:33:22;101305.06;;;0.57;100.00
7168;BME280;3625;51.762;14.320;2023-02-20T01:36:01;101302.28;;;0.52;100.00
7168;BME280;3625;51.762;14.320;2023-02-20T01:38:32;101303.19;;;0.53;100.00
7168;BME280;3625;51.762;14.320;2023-02-20T01:41:03;101293.66;;;0.53;100.00
7168;BME280;3625;51.762;14.320;2023-02-20T01:43:33;101283.06;;;0.47;100.00
7168;BME280;3625;51.762;14.320;2023-02-20T01:46:46;101249.53;;;0.29;100.00
7168;BME280;3625;51.762;14.320;2023-02-20T01:49:29;101217.94;;;0.19;100.00
7168;BME280;3625;51.762;14.320;2023-02-20T01:52:05;101262.22;;;0.47;100.00
7168;BME280;3625;51.762;14.320;2023-02-20T01:54:37;101260.56;;;0.49;100.00
7168;BME280;3625;51.762;14.320;2023-02-20T01:57:15;101256.47;;;0.57;100.00
7168;BME280;3625;51.762;14.320;2023-02-20T01:59:47;101253.38;;;0.69;100.00
7168;BME280;3625;51.762;14.320;2023-02-20T02:02:20;101244.19;;;0.82;100.00
7168;BME280;3625;51.762;14.320;2023-02-20T02:05:03;101243.78;;;0.98;100.00
7168;BME280;3625;51.762;14.320;2023-02-20T02:07:33;101250.31;;;1.12;100.00
7168;BME280;3625;51.762;14.320;2023-02-20T02:10:04;101256.63;;;1.22;100.00
7168;BME280;3625;51.762;14.320;2023-02-20T02:12:34;101237.75;;;1.30;100.00
7168;BME280;3625;51.762;14.320;2023-02-20T02:15:12;101225.09;;;1.42;100.00
7168;BME280;3625;51.762;14.320;2023-02-20T02:21:08;101204.56;;;1.55;100.00
7168;BME280;3625;51.762;14.320;2023-02-20T02:24:40;101069.91;;;0.89;100.00
7168;BME280;3625;51.762;14.320;2023-02-20T02:28:22;100879.69;;;-0.16;100.00
7168;BME280;3625;51.762;14.320;2023-02-20T02:31:51;100955.59;;;0.32;100.00
7168;BME280;3625;51.762;14.320;2023-02-20T02:35:16;100884.44;;;0.00;100.00
7168;BME280;3625;51.762;14.320;2023-02-20T02:38:05;101183.53;;;1.81;100.00
7168;BME280;3625;51.762;14.320;2023-02-20T02:40:56;101009.84;;;0.83;100.00
7168;BME280;3625;51.762;14.320;2023-02-20T02:43:44;101176.75;;;1.89;100.00
7168;BME280;3625;51.762;14.320;2023-02-20T02:46:25;101179.47;;;1.94;100.00
7168;BME280;3625;51.762;14.320;2023-02-20T02:49:04;101180.44;;;1.98;100.00
7168;BME280;3625;51.762;14.320;2023-02-20T02:51:40;100846.63;;;0.12;100.00
7168;BME280;3625;51.762;14.320;2023-02-20T02:54:26;101186.72;;;2.06;100.00
7168;BME280;3625;51.762;14.320;2023-02-20T02:57:22;100872.13;;;0.26;100.00
7168;BME280;3625;51.762;14.320;2023-02-20T02:59:56;101181.53;;;2.07;100.00
7168;BME280;3625;51.762;14.320;2023-02-20T03:02:33;101165.00;;;2.08;100.00
7168;BME280;3625;51.762;14.320;2023-02-20T03:05:11;101158.16;;;2.12;100.00
7168;BME280;3625;51.762;14.320;2023-02-20T03:07:49;101162.59;;;2.16;100.00
7168;BME280;3625;51.762;14.320;2023-02-20T03:10:23;101156.50;;;2.15;100.00
7168;BME280;3625;51.762;14.320;2023-02-20T03:13:04;101155.63;;;2.16;100.00
7168;BME280;3625;51.762;14.320;2023-02-20T03:15:37;101148.00;;;2.25;100.00
7168;BME280;3625;51.762;14.320;2023-02-20T03:18:15;101154.19;;;2.29;100.00
7168;BME280;3625;51.762;14.320;2023-02-20T03:20:50;101151.69;;;2.35;100.00
7168;BME280;3625;51.762;14.320;2023-02-20T03:23:23;101159.66;;;2.40;100.00
7168;BME280;3625;51.762;14.320;2023-02-20T03:26:00;101157.09;;;2.43;100.00
7168;BME280;3625;51.762;14.320;2023-02-20T03:28:57;101157.31;;;2.53;100.00
7168;BME280;3625;51.762;14.320;2023-02-20T03:31:32;101154.00;;;2.59;100.00
7168;BME280;3625;51.762;14.320;2023-02-20T03:34:13;101028.00;;;1.88;100.00
7168;BME280;3625;51.762;14.320;2023-02-20T03:37:05;101145.47;;;2.69;100.00
7168;BME280;3625;51.762;14.320;2023-02-20T03:39:57;101148.16;;;2.72;100.00
7168;BME280;3625;51.762;14.320;2023-02-20T03:42:54;100840.00;;;0.95;100.00
7168;BME280;3625;51.762;14.320;2023-02-20T03:45:44;101022.25;;;2.03;100.00
7168;BME280;3625;51.762;14.320;2023-02-20T03:48:23;101136.91;;;2.75;100.00
7168;BME280;3625;51.762;14.320;2023-02-20T03:50:56;101130.06;;;2.81;100.00
7168;BME280;3625;51.762;14.320;2023-02-20T03:53:39;101144.06;;;2.86;100.00
7168;BME280;3625;51.762;14.320;2023-02-20T03:56:18;101139.03;;;2.94;100.00
7168;BME280;3625;51.762;14.320;2023-02-20T03:58:57;101004.44;;;2.25;100.00
7168;BME280;3625;51.762;14.320;2023-02-20T04:01:28;101132.34;;;3.10;100.00
7168;BME280;3625;51.762;14.320;2023-02-20T04:04:03;101132.44;;;3.14;100.00
7168;BME280;3625;51.762;14.320;2023-02-20T04:06:38;101127.22;;;3.16;100.00
7168;BME280;3625;51.762;14.320;2023-02-20T04:09:29;101123.00;;;3.22;100.00
7168;BME280;3625;51.762;14.320;2023-02-20T04:12:10;101115.28;;;3.30;100.00
7168;BME280;3625;51.762;14.320;2023-02-20T04:14:46;101098.94;;;3.41;100.00
7168;BME280;3625;51.762;14.320;2023-02-20T04:17:23;101100.81;;;3.50;100.00
7168;BME280;3625;51.762;14.320;2023-02-20T04:19:56;101100.91;;;3.56;100.00
7168;BME280;3625;51.762;14.320;2023-02-20T04:22:34;101101.00;;;3.61;100.00
7168;BME280;3625;51.762;14.320;2023-02-20T04:25:13;101108.94;;;3.67;100.00
7168;BME280;3625;51.762;14.320;2023-02-20T04:27:47;101120.38;;;3.73;100.00
7168;BME280;3625;51.762;14.320;2023-02-20T04:30:18;101124.81;;;3.77;100.00
7168;BME280;3625;51.762;14.320;2023-02-20T04:32:48;101127.53;;;3.84;100.00
7168;BME280;3625;51.762;14.320;2023-02-20T04:35:19;101096.00;;;3.76;100.00
7168;BME280;3625;51.762;14.320;2023-02-20T04:37:53;101124.25;;;3.97;100.00
7168;BME280;3625;51.762;14.320;2023-02-20T04:40:27;101127.81;;;4.02;100.00
7168;BME280;3625;51.762;14.320;2023-02-20T04:42:56;101113.00;;;4.04;100.00
7168;BME280;3625;51.762;14.320;2023-02-20T04:45:39;101107.84;;;4.10;100.00
7168;BME280;3625;51.762;14.320;2023-02-20T04:48:09;101105.28;;;4.13;100.00
7168;BME280;3625;51.762;14.320;2023-02-20T04:50:39;101093.13;;;4.15;100.00
7168;BME280;3625;51.762;14.320;2023-02-20T04:53:09;101079.19;;;4.19;100.00
7168;BME280;3625;51.762;14.320;2023-02-20T04:55:40;101078.38;;;4.23;100.00
7168;BME280;3625;51.762;14.320;2023-02-20T04:58:13;101077.56;;;4.29;100.00
7168;BME280;3625;51.762;14.320;2023-02-20T05:01:00;101070.63;;;4.34;100.00
7168;BME280;3625;51.762;14.320;2023-02-20T05:03:29;101063.75;;;4.39;100.00
7168;BME280;3625;51.762;14.320;2023-02-20T05:05:58;101068.13;;;4.43;100.00
7168;BME280;3625;51.762;14.320;2023-02-20T05:08:30;100970.69;;;3.97;100.00
7168;BME280;3625;51.762;14.320;2023-02-20T05:11:03;101050.75;;;4.48;100.00
7168;BME280;3625;51.762;14.320;2023-02-20T05:13:32;101046.41;;;4.48;100.00
7168;BME280;3625;51.762;14.320;2023-02-20T05:16:03;101050.78;;;4.52;100.00
7168;BME280;3625;51.762;14.320;2023-02-20T05:18:38;101049.09;;;4.56;100.00
7168;BME280;3625;51.762;14.320;2023-02-20T05:21:14;101040.41;;;4.60;100.00
7168;BME280;3625;51.762;14.320;2023-02-20T05:24:01;101040.50;;;4.66;100.00
7168;BME280;3625;51.762;14.320;2023-02-20T05:26:33;101039.69;;;4.73;100.00
7168;BME280;3625;51.762;14.320;2023-02-20T05:29:02;101027.47;;;4.77;100.00
7168;BME280;3625;51.762;14.320;2023-02-20T05:31:35;101016.16;;;4.79;100.00
7168;BME280;3625;51.762;14.320;2023-02-20T05:34:08;101009.19;;;4.81;100.00
7168;BME280;3625;51.762;14.320;2023-02-20T05:36:37;101014.47;;;4.87;100.00
7168;BME280;3625;51.762;14.320;2023-02-20T05:39:06;101009.25;;;4.89;100.00
7168;BME280;3625;51.762;14.320;2023-02-20T05:41:41;101008.38;;;4.88;100.00
7168;BME280;3625;51.762;14.320;2023-02-20T05:44:13;101006.63;;;4.87;100.00
7168;BME280;3625;51.762;14.320;2023-02-20T05:46:44;100994.38;;;4.88;100.00
7168;BME280;3625;51.762;14.320;2023-02-20T05:49:13;101006.63;;;4.89;100.00
7168;BME280;3625;51.762;14.320;2023-02-20T05:51:51;100989.16;;;4.89;100.00
7168;BME280;3625;51.762;14.320;2023-02-20T05:54:20;100984.78;;;4.87;100.00
7168;BME280;3625;51.762;14.320;2023-02-20T05:56:53;100981.34;;;4.96;100.00
7168;BME280;3625;51.762;14.320;2023-02-20T05:59:22;100881.34;;;4.51;100.00
7168;BME280;3625;51.762;14.320;2023-02-20T06:02:00;100971.88;;;5.11;100.00
7168;BME280;3625;51.762;14.320;2023-02-20T06:04:29;100970.19;;;5.16;100.00
7168;BME280;3625;51.762;14.320;2023-02-20T06:07:02;100963.19;;;5.17;100.00
7168;BME280;3625;51.762;14.320;2023-02-20T06:09:40;100964.09;;;5.19;100.00
7168;BME280;3625;51.762;14.320;2023-02-20T06:12:12;100962.38;;;5.24;100.00
7168;BME280;3625;51.762;14.320;2023-02-20T06:14:46;100954.50;;;5.28;100.00
7168;BME280;3625;51.762;14.320;2023-02-20T06:17:22;100951.94;;;5.35;100.00
7168;BME280;3625;51.762;14.320;2023-02-20T06:19:51;100952.84;;;5.40;100.00
7168;BME280;3625;51.762;14.320;2023-02-20T06:22:22;100957.25;;;5.44;100.00
7168;BME280;3625;51.762;14.320;2023-02-20T06:24:51;100944.16;;;5.48;100.00
7168;BME280;3625;51.762;14.320;2023-02-20T06:27:24;100943.34;;;5.57;100.00
7168;BME280;3625;51.762;14.320;2023-02-20T06:29:54;100945.09;;;5.59;100.00
7168;BME280;3625;51.762;14.320;2023-02-20T06:32:26;100951.22;;;5.63;100.00
7168;BME280;3625;51.762;14.320;2023-02-20T06:34:55;100939.91;;;5.72;100.00
7168;BME280;3625;51.762;14.320;2023-02-20T06:37:26;100946.97;;;5.83;100.00
7168;BME280;3625;51.762;14.320;2023-02-20T06:39:59;100939.16;;;5.91;100.00
7168;BME280;3625;51.762;14.320;2023-02-20T06:42:30;100938.31;;;5.95;100.00
7168;BME280;3625;51.762;14.320;2023-02-20T06:44:59;100932.22;;;6.00;100.00
7168;BME280;3625;51.762;14.320;2023-02-20T06:47:32;100935.72;;;6.07;100.00
7168;BME280;3625;51.762;14.320;2023-02-20T06:50:02;100935.75;;;6.12;100.00
7168;BME280;3625;51.762;14.320;2023-02-20T06:52:32;100938.41;;;6.18;100.00
7168;BME280;3625;51.762;14.320;2023-02-20T06:55:07;100926.16;;;6.23;100.00
7168;BME280;3625;51.762;14.320;2023-02-20T06:57:36;100916.56;;;6.29;100.00
7168;BME280;3625;51.762;14.320;2023-02-20T07:00:06;100926.22;;;6.38;100.00
7168;BME280;3625;51.762;14.320;2023-02-20T07:02:40;100923.56;;;6.41;100.00
7168;BME280;3625;51.762;14.320;2023-02-20T07:05:11;100817.53;;;5.93;100.00
7168;BME280;3625;51.762;14.320;2023-02-20T07:07:40;100920.13;;;6.57;100.00
7168;BME280;3625;51.762;14.320;2023-02-20T07:10:09;100924.50;;;6.67;100.00
7168;BME280;3625;51.762;14.320;2023-02-20T07:12:38;100931.50;;;6.77;100.00
7168;BME280;3625;51.762;14.320;2023-02-20T07:15:09;100931.50;;;6.85;100.00
7168;BME280;3625;51.762;14.320;2023-02-20T07:17:41;100938.53;;;6.92;100.00
7168;BME280;3625;51.762;14.320;2023-02-20T07:20:17;100929.78;;;6.98;100.00
7168;BME280;3625;51.762;14.320;2023-02-20T07:22:52;100907.84;;;6.96;100.00
7168;BME280;3625;51.762;14.320;2023-02-20T07:25:25;100917.50;;;7.13;100.00
7168;BME280;3625;51.762;14.320;2023-02-20T07:28:02;100914.84;;;7.24;100.00
7168;BME280;3625;51.762;14.320;2023-02-20T07:30:37;100908.69;;;7.30;100.00
7168;BME280;3625;51.762;14.320;2023-02-20T07:33:08;100912.19;;;7.36;100.00
7168;BME280;3625;51.762;14.320;2023-02-20T07:35:37;100902.53;;;7.50;100.00
7168;BME280;3625;51.762;14.320;2023-02-20T07:38:13;100900.72;;;7.63;100.00
7168;BME280;3625;51.762;14.320;2023-02-20T07:40:44;100905.94;;;7.71;100.00
7168;BME280;3625;51.762;14.320;2023-02-20T07:43:14;100889.28;;;7.76;100.00
7168;BME280;3625;51.762;14.320;2023-02-20T07:45:49;100891.88;;;7.87;100.00
7168;BME280;3625;51.762;14.320;2023-02-20T07:48:21;100900.59;;;7.95;100.00
7168;BME280;3625;51.762;14.320;2023-02-20T07:50:50;100911.97;;;8.03;100.00
7168;BME280;3625;51.762;14.320;2023-02-20T07:53:20;100630.19;;;6.22;100.00
7168;BME280;3625;51.762;14.320;2023-02-20T07:55:49;100915.59;;;7.78;100.00
7168;BME280;3625;51.762;14.320;2023-02-20T07:58:18;100891.91;;;7.78;100.00
7168;BME280;3625;51.762;14.320;2023-02-20T08:00:47;100857.66;;;7.73;100.00
7168;BME280;3625;51.762;14.320;2023-02-20T08:03:22;100843.56;;;7.80;100.00
7168;BME280;3625;51.762;14.320;2023-02-20T08:05:52;100867.25;;;7.92;100.00
7168;BME280;3625;51.762;14.320;2023-02-20T08:08:26;100890.91;;;8.03;100.00
7168;BME280;3625;51.762;14.320;2023-02-20T08:10:55;100881.19;;;8.11;100.00
7168;BME280;3625;51.762;14.320;2023-02-20T08:13:37;100859.19;;;8.18;100.00
7168;BME280;3625;51.762;14.320;2023-02-20T08:16:06;100883.75;;;8.22;100.00
7168;BME280;3625;51.762;14.320;2023-02-20T08:18:43;100882.84;;;8.37;100.00
7168;BME280;3625;51.762;14.320;2023-02-20T08:21:18;100873.94;;;8.56;100.00
7168;BME280;3625;51.762;14.320;2023-02-20T08:23:52;100878.22;;;8.66;100.00
7168;BME280;3625;51.762;14.320;2023-02-20T08:26:21;100873.75;;;8.76;100.00
7168;BME280;3625;51.762;14.320;2023-02-20T08:28:51;100856.16;;;8.75;100.00
7168;BME280;3625;51.762;14.320;2023-02-20T08:31:20;100844.56;;;8.94;100.00
7168;BME280;3625;51.762;14.320;2023-02-20T08:34:00;100848.78;;;9.15;100.00
7168;BME280;3625;51.762;14.320;2023-02-20T08:36:29;100836.28;;;9.30;100.00
7168;BME280;3625;51.762;14.320;2023-02-20T08:39:21;100843.41;;;9.24;99.02
7168;BME280;3625;51.762;14.320;2023-02-20T08:41:49;100804.78;;;9.14;99.38
7168;BME280;3625;51.762;14.320;2023-02-20T08:44:22;100818.09;;;9.01;99.56
7168;BME280;3625;51.762;14.320;2023-02-20T08:46:55;100827.88;;;8.92;99.91
7168;BME280;3625;51.762;14.320;2023-02-20T08:49:26;100832.34;;;8.82;99.67
7168;BME280;3625;51.762;14.320;2023-02-20T08:51:56;100828.91;;;8.76;100.00
7168;BME280;3625;51.762;14.320;2023-02-20T08:54:26;100803.41;;;8.76;98.94
7168;BME280;3625;51.762;14.320;2023-02-20T08:56:55;100783.19;;;8.74;98.48
7168;BME280;3625;51.762;14.320;2023-02-20T08:59:26;100776.19;;;8.73;97.63
7168;BME280;3625;51.762;14.320;2023-02-20T09:02:03;100774.28;;;8.85;98.62
7168;BME280;3625;51.762;14.320;2023-02-20T09:04:34;100790.22;;;8.76;97.58
7168;BME280;3625;51.762;14.320;2023-02-20T09:07:03;100783.16;;;8.78;96.40
7168;BME280;3625;51.762;14.320;2023-02-20T09:09:32;100790.13;;;8.84;96.82
7168;BME280;3625;51.762;14.320;2023-02-20T09:12:09;100796.25;;;8.90;94.34
7168;BME280;3625;51.762;14.320;2023-02-20T09:14:40;100777.78;;;8.89;94.43
7168;BME280;3625;51.762;14.320;2023-02-20T09:17:11;100770.00;;;8.75;94.61
7168;BME280;3625;51.762;14.320;2023-02-20T09:19:42;100759.44;;;8.75;94.84
7168;BME280;3625;51.762;14.320;2023-02-20T09:22:11;100744.47;;;8.79;94.01
7168;BME280;3625;51.762;14.320;2023-02-20T09:24:39;100760.22;;;8.85;93.85
7168;BME280;3625;51.762;14.320;2023-02-20T09:27:09;100741.75;;;8.86;93.45
7168;BME280;3625;51.762;14.320;2023-02-20T09:29:38;100733.06;;;8.77;93.06
7168;BME280;3625;51.762;14.320;2023-02-20T09:32:09;100738.13;;;8.96;92.86
7168;BME280;3625;51.762;14.320;2023-02-20T09:34:40;100741.63;;;8.97;91.94
7168;BME280;3625;51.762;14.320;2023-02-20T09:37:15;100749.59;;;8.92;91.40
7168;BME280;3625;51.762;14.320;2023-02-20T09:39:44;100753.06;;;8.97;92.17
7168;BME280;3625;51.762;14.320;2023-02-20T09:42:28;100530.09;;;7.88;91.22
7168;BME280;3625;51.762;14.320;2023-02-20T09:45:08;100687.22;;;8.88;90.41
7168;BME280;3625;51.762;14.320;2023-02-20T09:48:13;100721.97;;;9.22;89.05
7168;BME280;3625;51.762;14.320;2023-02-20T09:50:52;100679.16;;;8.99;88.58
7168;BME280;3625;51.762;14.320;2023-02-20T09:53:35;100478.03;;;8.11;88.67
7168;BME280;3625;51.762;14.320;2023-02-20T09:56:16;100703.25;;;9.40;88.70
7168;BME280;3625;51.762;14.320;2023-02-20T09:58:53;100505.19;;;8.16;88.98
7168;BME280;3625;51.762;14.320;2023-02-20T10:01:28;100718.16;;;9.43;87.95
7168;BME280;3625;51.762;14.320;2023-02-20T10:04:02;100417.81;;;7.79;87.36
7168;BME280;3625;51.762;14.320;2023-02-20T10:06:34;100697.66;;;9.62;87.88
7168;BME280;3625;51.762;14.320;2023-02-20T10:09:14;100533.25;;;8.91;86.62
7168;BME280;3625;51.762;14.320;2023-02-20T10:12:04;100526.22;;;8.91;85.05
7168;BME280;3625;51.762;14.320;2023-02-20T10:15:15;100681.97;;;10.08;85.05
7168;BME280;3625;51.762;14.320;2023-02-20T10:17:57;100665.13;;;10.13;84.00
7168;BME280;3625;51.762;14.320;2023-02-20T10:20:45;100655.41;;;10.18;83.82
7168;BME280;3625;51.762;14.320;2023-02-20T10:23:32;100653.41;;;10.31;82.89
7168;BME280;3625;51.762;14.320;2023-02-20T10:26:10;100533.84;;;9.66;81.84
7168;BME280;3625;51.762;14.320;2023-02-20T10:28:47;100457.59;;;8.91;83.90
7168;BME280;3625;51.762;14.320;2023-02-20T10:31:40;100393.94;;;8.59;82.71
7168;BME280;3625;51.762;14.320;2023-02-20T10:34:22;100633.97;;;10.32;82.42
7168;BME280;3625;51.762;14.320;2023-02-20T10:37:03;100469.59;;;9.64;81.11
7168;BME280;3625;51.762;14.320;2023-02-20T10:39:37;100635.22;;;10.61;79.38
7168;BME280;3625;51.762;14.320;2023-02-20T10:42:13;100602.56;;;10.62;80.19
7168;BME280;3625;51.762;14.320;2023-02-20T10:44:55;100462.78;;;9.97;80.17
7168;BME280;3625;51.762;14.320;2023-02-20T10:47:35;100497.94;;;10.02;79.76
7168;BME280;3625;51.762;14.320;2023-02-20T10:50:16;100558.34;;;10.68;79.27
7168;BME280;3625;51.762;14.320;2023-02-20T10:52:51;100485.75;;;10.38;76.77
7168;BME280;3625;51.762;14.320;2023-02-20T10:55:29;100475.47;;;10.26;77.94
7168;BME280;3625;51.762;14.320;2023-02-20T10:58:11;100509.31;;;10.50;77.30
7168;BME280;3625;51.762;14.320;2023-02-20T11:00:48;100286.75;;;9.07;78.57
7168;BME280;3625;51.762;14.320;2023-02-20T11:03:31;100516.88;;;10.69;77.46
7168;BME280;3625;51.762;14.320;2023-02-20T11:06:05;100452.75;;;10.56;74.57
7168;BME280;3625;51.762;14.320;2023-02-20T11:08:42;100564.72;;;11.37;73.70
7168;BME280;3625;51.762;14.320;2023-02-20T11:11:30;100378.94;;;10.05;74.85
7168;BME280;3625;51.762;14.320;2023-02-20T11:14:10;100553.66;;;11.19;74.37
7168;BME280;3625;51.762;14.320;2023-02-20T11:16:46;100534.97;;;11.25;73.36
7168;BME280;3625;51.762;14.320;2023-02-20T11:19:23;100525.72;;;11.43;72.86
7168;BME280;3625;51.762;14.320;2023-02-20T11:21:55;100559.56;;;11.67;72.17
7168;BME280;3625;51.762;14.320;2023-02-20T11:24:36;100455.59;;;11.24;70.30
7168;BME280;3625;51.762;14.320;2023-02-20T11:27:15;100464.72;;;11.46;69.59
7168;BME280;3625;51.762;14.320;2023-02-20T11:29:50;100545.56;;;11.96;69.30
7168;BME280;3625;51.762;14.320;2023-02-20T11:32:34;100515.75;;;11.88;66.15
7168;BME280;3625;51.762;14.320;2023-02-20T11:35:23;100519.06;;;11.96;67.03
7168;BME280;3625;51.762;14.320;2023-02-20T11:38:29;100512.56;;;11.76;68.97
7168;BME280;3625;51.762;14.320;2023-02-20T11:41:30;100296.75;;;10.54;69.47
7168;BME280;3625;51.762;14.320;2023-02-20T11:44:24;100508.59;;;11.58;69.35
7168;BME280;3625;51.762;14.320;2023-02-20T11:47:25;100505.09;;;11.56;68.80
7168;BME280;3625;51.762;14.320;2023-02-20T11:50:14;100472.06;;;11.35;70.02
7168;BME280;3625;51.762;14.320;2023-02-20T11:52:59;100486.28;;;11.31;69.58
7168;BME280;3625;51.762;14.320;2023-02-20T11:55:31;100481.53;;;11.44;69.39
7168;BME280;3625;51.762;14.320;2023-02-20T11:58:02;100474.94;;;11.26;69.45
7168;BME280;3625;51.762;14.320;2023-02-20T12:00:46;100484.72;;;11.58;66.86
7168;BME280;3625;51.762;14.320;2023-02-20T12:03:20;100496.06;;;11.63;68.20
7168;BME280;3625;51.762;14.320;2023-02-20T12:05:55;100497.56;;;11.75;67.95
7168;BME280;3625;51.762;14.320;2023-02-20T12:08:46;100481.44;;;11.84;67.23
7168;BME280;3625;51.762;14.320;2023-02-20T12:11:20;100322.94;;;10.99;67.39
7168;BME280;3625;51.762;14.320;2023-02-20T12:13:57;100491.25;;;12.11;64.89
7168;BME280;3625;51.762;14.320;2023-02-20T12:16:58;100485.56;;;12.25;62.99
7168;BME280;3625;51.762;14.320;2023-02-20T12:19:44;100240.56;;;10.79;63.00
7168;BME280;3625;51.762;14.320;2023-02-20T12:22:28;100501.66;;;12.50;62.89
7168;BME280;3625;51.762;14.320;2023-02-20T12:25:23;100250.41;;;11.06;61.76
7168;BME280;3625;51.762;14.320;2023-02-20T12:28:07;100505.22;;;12.78;62.81
7168;BME280;3625;51.762;14.320;2023-02-20T12:31:04;100490.06;;;12.81;61.18
7168;BME280;3625;51.762;14.320;2023-02-20T12:34:14;100484.25;;;12.69;62.03
7168;BME280;3625;51.762;14.320;2023-02-20T12:36:54;100484.66;;;12.84;61.57
7168;BME280;3625;51.762;14.320;2023-02-20T12:39:32;100459.03;;;12.83;61.33
7168;BME280;3625;51.762;14.320;2023-02-20T12:42:17;100459.59;;;12.93;60.95
7168;BME280;3625;51.762;14.320;2023-02-20T12:45:22;100466.38;;;13.03;60.47
7168;BME280;3625;51.762;14.320;2023-02-20T12:48:20;100438.03;;;13.04;60.82
7168;BME280;3625;51.762;14.320;2023-02-20T12:51:16;100461.53;;;13.16;59.68
7168;BME280;3625;51.762;14.320;2023-02-20T12:54:12;100472.09;;;12.90;60.60
7168;BME280;3625;51.762;14.320;2023-02-20T12:56:57;100489.81;;;12.89;62.63
7168;BME280;3625;51.762;14.320;2023-02-20T12:59:37;100446.13;;;12.71;63.14
7168;BME280;3625;51.762;14.320;2023-02-20T13:02:20;100489.53;;;12.70;64.40
7168;BME280;3625;51.762;14.320;2023-02-20T13:05:11;100186.13;;;11.01;64.05
7168;BME280;3625;51.762;14.320;2023-02-20T13:07:51;100236.38;;;11.33;65.26
7168;BME280;3625;51.762;14.320;2023-02-20T13:10:31;100235.66;;;11.58;64.20
7168;BME280;3625;51.762;14.320;2023-02-20T13:13:01;100458.09;;;13.14;64.56
7168;BME280;3625;51.762;14.320;2023-02-20T13:15:39;100426.88;;;12.93;63.70
7168;BME280;3625;51.762;14.320;2023-02-20T13:18:26;100447.84;;;13.00;64.65
7168;BME280;3625;51.762;14.320;2023-02-20T13:21:05;100243.38;;;11.65;65.42
7168;BME280;3625;51.762;14.320;2023-02-20T13:23:39;100422.75;;;12.82;66.80
7168;BME280;3625;51.762;14.320;2023-02-20T13:26:46;100442.00;;;12.89;65.77
7168;BME280;3625;51.762;14.320;2023-02-20T13:29:29;100432.34;;;12.88;66.38
7168;BME280;3625;51.762;14.320;2023-02-20T13:32:26;100285.44;;;11.78;66.33
7168;BME280;3625;51.762;14.320;2023-02-20T13:35:33;100424.31;;;12.62;67.34
7168;BME280;3625;51.762;14.320;2023-02-20T13:38:10;100302.06;;;11.84;67.50
7168;BME280;3625;51.762;14.320;2023-02-20T13:41:04;100445.47;;;12.35;68.72
7168;BME280;3625;51.762;14.320;2023-02-20T13:43:34;100426.13;;;12.32;69.68
7168;BME280;3625;51.762;14.320;2023-02-20T13:46:17;100281.69;;;11.54;70.78
7168;BME280;3625;51.762;14.320;2023-02-20T13:48:52;100374.03;;;12.00;71.21
7168;BME280;3625;51.762;14.320;2023-02-20T13:51:39;100386.41;;;11.99;70.99
7168;BME280;3625;51.762;14.320;2023-02-20T13:54:26;100413.81;;;12.00;71.92
7168;BME280;3625;51.762;14.320;2023-02-20T13:57:16;100175.63;;;10.33;73.77
7168;BME280;3625;51.762;14.320;2023-02-20T13:59:53;100207.53;;;10.61;73.03
7168;BME280;3625;51.762;14.320;2023-02-20T14:02:23;100436.41;;;11.82;73.63
7168;BME280;3625;51.762;14.320;2023-02-20T14:05:00;100248.91;;;10.64;75.14
7168;BME280;3625;51.762;14.320;2023-02-20T14:07:36;100170.78;;;10.15;75.35
7168;BME280;3625;51.762;14.320;2023-02-20T14:10:16;100424.44;;;11.66;76.09
7168;BME280;3625;51.762;14.320;2023-02-20T14:12:55;100431.81;;;11.55;77.28
7168;BME280;3625;51.762;14.320;2023-02-20T14:15:25;100427.44;;;11.52;77.67